Time;durP1;ratioP1;P1;durP2;ratioP2;P2;SDS_P1;SDS_P2;PMS_P1;PMS_P2;Temp;Humidity;BMP_temperature;BMP_pressure;BME280_temperature;BME280_humidity;BME280_pressure;Samples;Min_cycle;Max_cycle;Signal;HPM_P1;HPM_P2
2022/08/24 00:01:05;;;;;;;3.27;2.97;;;16.70;99.90;;;;;;480165;247;28750;-69
2022/08/24 00:03:10;;;;;;;3.03;2.83;;;16.70;99.90;;;;;;488292;243;28809;-68
2022/08/24 00:05:08;;;;;;;3.00;2.80;;;16.60;99.90;;;;;;486176;242;28786;-69
2022/08/24 00:07:09;;;;;;;3.10;2.80;;;16.50;99.90;;;;;;489923;241;28919;-70
2022/08/24 00:09:10;;;;;;;3.03;2.83;;;16.50;99.90;;;;;;489932;241;28876;-68
2022/08/24 00:11:12;;;;;;;3.23;2.90;;;16.60;99.90;;;;;;483592;241;28745;-68
2022/08/24 00:13:13;;;;;;;3.13;2.93;;;16.50;99.90;;;;;;481433;246;29786;-72
2022/08/24 00:15:15;;;;;;;3.03;2.80;;;16.50;99.90;;;;;;481392;246;29200;-68
2022/08/24 00:17:15;;;;;;;2.90;2.70;;;16.50;99.90;;;;;;481330;244;29212;-69
2022/08/24 00:19:17;;;;;;;2.70;2.50;;;16.40;99.90;;;;;;481381;246;29198;-68
2022/08/24 00:21:18;;;;;;;2.80;2.60;;;16.40;99.90;;;;;;481367;246;28776;-70
2022/08/24 00:23:20;;;;;;;2.90;2.70;;;16.30;99.90;;;;;;481366;246;28725;-72
2022/08/24 00:25:20;;;;;;;2.53;2.43;;;16.30;99.90;;;;;;481346;246;28813;-69
2022/08/24 00:27:22;;;;;;;2.90;2.70;;;16.30;99.90;;;;;;481343;246;28736;-67
2022/08/24 00:29:23;;;;;;;2.90;2.70;;;16.30;99.90;;;;;;481294;246;28812;-68
2022/08/24 00:31:24;;;;;;;2.30;2.20;;;16.30;99.90;;;;;;481348;246;28825;-69
2022/08/24 00:33:25;;;;;;;2.63;2.43;;;16.20;99.90;;;;;;483895;243;28833;-71
2022/08/24 00:35:27;;;;;;;2.60;2.40;;;16.20;99.90;;;;;;486898;243;28701;-68
2022/08/24 00:37:28;;;;;;;2.53;2.33;;;16.20;99.90;;;;;;486648;241;29140;-69
2022/08/24 00:39:29;;;;;;;3.40;3.10;;;16.10;99.90;;;;;;481241;246;29288;-69
2022/08/24 00:41:30;;;;;;;3.57;3.27;;;16.00;99.90;;;;;;481398;246;29304;-69
2022/08/24 00:43:32;;;;;;;2.90;2.70;;;16.00;99.90;;;;;;486827;243;29210;-70
2022/08/24 00:45:33;;;;;;;3.17;2.97;;;16.00;99.90;;;;;;484647;241;28734;-68
2022/08/24 00:47:34;;;;;;;2.90;2.70;;;16.00;99.90;;;;;;486196;241;28724;-71
2022/08/24 00:49:36;;;;;;;3.10;2.90;;;16.00;99.90;;;;;;485626;243;28705;-68
2022/08/24 00:51:37;;;;;;;2.57;2.47;;;16.10;99.90;;;;;;481502;245;28859;-68
2022/08/24 00:53:38;;;;;;;3.00;2.80;;;16.10;99.90;;;;;;480142;247;29253;-70
2022/08/24 00:55:39;;;;;;;3.40;3.10;;;16.10;99.90;;;;;;480142;247;29175;-68
2022/08/24 00:57:41;;;;;;;2.90;2.70;;;16.10;99.90;;;;;;480107;247;29336;-69
2022/08/24 00:59:42;;;;;;;2.83;2.63;;;16.10;99.90;;;;;;480147;247;28813;-69
2022/08/24 01:01:43;;;;;;;3.10;2.90;;;16.10;99.90;;;;;;480159;247;28821;-69
2022/08/24 01:03:45;;;;;;;3.80;3.23;;;16.00;99.90;;;;;;483056;243;28723;-73
2022/08/24 01:05:46;;;;;;;4.27;2.97;;;16.00;99.90;;;;;;489650;241;28789;-69
2022/08/24 01:07:50;;;;;;;3.13;2.93;;;16.00;99.90;;;;;;483859;244;28802;-69
2022/08/24 01:09:51;;;;;;;3.10;2.90;;;16.00;99.90;;;;;;488291;243;28820;-68
2022/08/24 01:11:52;;;;;;;3.30;3.10;;;16.00;99.90;;;;;;484966;242;28738;-68
2022/08/24 01:13:54;;;;;;;3.10;2.90;;;15.90;99.90;;;;;;481391;246;28766;-68
2022/08/24 01:15:55;;;;;;;2.87;2.67;;;16.00;99.90;;;;;;481388;246;28764;-69
2022/08/24 01:20:16;;;;;;;2.70;2.50;;;16.00;99.90;;;;;;481357;247;28777;-68
2022/08/24 01:22:17;;;;;;;3.07;2.87;;;15.90;99.90;;;;;;481397;246;28771;-71
2022/08/24 01:24:18;;;;;;;3.20;2.97;;;15.90;99.90;;;;;;481410;246;28737;-68
2022/08/24 01:26:19;;;;;;;2.83;2.63;;;15.90;99.90;;;;;;481347;246;28757;-68
2022/08/24 01:28:20;;;;;;;2.87;2.67;;;15.90;99.90;;;;;;481362;246;29253;-69
2022/08/24 01:30:22;;;;;;;2.80;2.60;;;15.90;99.90;;;;;;481391;246;29220;-68
2022/08/24 01:32:23;;;;;;;2.90;2.70;;;15.80;99.90;;;;;;481401;246;29432;-72
2022/08/24 01:34:24;;;;;;;2.53;2.33;;;15.70;99.90;;;;;;481421;246;29266;-68
2022/08/24 01:36:25;;;;;;;3.00;2.80;;;15.70;99.90;;;;;;482676;243;28748;-69
2022/08/24 01:38:27;;;;;;;2.77;2.60;;;15.70;99.90;;;;;;486934;241;28791;-68
2022/08/24 01:40:28;;;;;;;3.13;2.83;;;15.70;99.90;;;;;;486712;241;28742;-68
2022/08/24 01:42:29;;;;;;;3.90;2.80;;;15.60;99.90;;;;;;485619;244;28863;-68
2022/08/24 01:44:33;;;;;;;2.73;2.53;;;15.70;99.90;;;;;;486109;244;28797;-68
2022/08/24 01:46:32;;;;;;;2.53;2.43;;;15.60;99.90;;;;;;486473;243;28745;-68
2022/08/24 01:48:33;;;;;;;2.40;2.30;;;15.60;99.90;;;;;;489747;241;28824;-68
2022/08/24 01:50:34;;;;;;;2.90;2.70;;;15.60;99.90;;;;;;483927;241;28767;-69
2022/08/24 01:52:35;;;;;;;2.80;2.60;;;15.60;99.90;;;;;;481300;243;29777;-71
2022/08/24 01:54:37;;;;;;;2.67;2.57;;;15.60;99.90;;;;;;482928;241;29250;-68
2022/08/24 01:56:38;;;;;;;2.90;2.70;;;15.60;99.90;;;;;;480580;246;29287;-69
2022/08/24 01:58:39;;;;;;;3.10;2.90;;;15.70;99.90;;;;;;481388;246;29163;-68
2022/08/24 02:00:40;;;;;;;2.97;2.73;;;15.60;99.90;;;;;;481383;246;28741;-69
2022/08/24 02:02:42;;;;;;;2.97;2.63;;;15.60;99.90;;;;;;481414;246;28755;-72
2022/08/24 02:04:43;;;;;;;3.60;3.00;;;15.50;99.90;;;;;;481412;246;28753;-68
2022/08/24 02:06:44;;;;;;;2.53;2.43;;;15.60;99.90;;;;;;481198;246;28752;-70
2022/08/24 02:08:45;;;;;;;2.80;2.60;;;15.50;99.90;;;;;;486708;243;28678;-68
2022/08/24 02:10:47;;;;;;;3.00;2.80;;;15.50;99.90;;;;;;489900;242;28745;-69
2022/08/24 02:12:57;;;;;;;3.00;2.80;;;15.50;99.90;;;;;;485931;241;28846;-71
2022/08/24 02:15:01;;;;;;;2.90;2.60;;;15.50;99.90;;;;;;480124;247;29218;-68
2022/08/24 02:17:00;;;;;;;2.90;2.70;;;15.40;99.90;;;;;;479848;247;29351;-68
2022/08/24 02:19:01;;;;;;;3.13;2.93;;;15.50;99.90;;;;;;480131;247;29193;-69
2022/08/24 02:21:02;;;;;;;2.90;2.70;;;15.40;99.90;;;;;;480135;247;29276;-72
2022/08/24 02:23:03;;;;;;;3.00;2.80;;;15.50;99.90;;;;;;480163;247;28816;-68
2022/08/24 02:25:05;;;;;;;2.90;2.70;;;15.40;99.90;;;;;;480149;247;28828;-69
2022/08/24 02:27:07;;;;;;;2.80;2.60;;;15.40;99.90;;;;;;479979;247;28731;-69
2022/08/24 02:29:07;;;;;;;2.67;2.57;;;15.40;99.90;;;;;;480122;247;28710;-69
2022/08/24 02:31:08;;;;;;;3.10;2.90;;;15.40;99.90;;;;;;483528;243;28743;-72
2022/08/24 02:33:10;;;;;;;2.87;2.67;;;15.30;99.90;;;;;;483064;243;28706;-69
2022/08/24 02:35:11;;;;;;;2.53;2.43;;;15.30;99.90;;;;;;485299;241;28797;-68
2022/08/24 02:37:13;;;;;;;3.13;2.90;;;15.20;99.90;;;;;;483700;241;28720;-68
2022/08/24 02:39:13;;;;;;;3.20;3.00;;;15.20;99.90;;;;;;482832;246;29368;-69
2022/08/24 02:41:15;;;;;;;2.93;2.73;;;15.20;99.90;;;;;;482861;246;29404;-68
2022/08/24 02:43:16;;;;;;;3.03;2.73;;;15.10;99.90;;;;;;482862;246;29267;-68
2022/08/24 02:45:17;;;;;;;2.70;2.60;;;15.10;99.90;;;;;;482826;246;28963;-69
2022/08/24 02:47:18;;;;;;;3.20;3.00;;;15.00;99.90;;;;;;482780;246;28955;-68
2022/08/24 02:49:21;;;;;;;3.33;3.13;;;15.00;99.90;;;;;;482875;246;28809;-69
2022/08/24 02:51:21;;;;;;;3.13;2.93;;;15.00;99.90;;;;;;482801;246;28881;-71
2022/08/24 02:53:22;;;;;;;3.00;2.80;;;14.90;99.90;;;;;;482885;246;28823;-69
2022/08/24 02:55:23;;;;;;;4.10;3.10;;;15.00;99.90;;;;;;482874;246;28892;-69
2022/08/24 02:57:25;;;;;;;2.87;2.67;;;15.00;99.90;;;;;;482794;246;28898;-69
2022/08/24 02:59:26;;;;;;;2.90;2.70;;;15.00;99.90;;;;;;482909;246;28911;-68
2022/08/24 03:01:27;;;;;;;3.20;2.90;;;15.00;99.90;;;;;;483635;243;28835;-69
2022/08/24 03:03:29;;;;;;;3.00;2.80;;;14.90;99.90;;;;;;483023;243;29200;-69
2022/08/24 03:05:30;;;;;;;3.30;3.03;;;14.90;99.90;;;;;;482876;246;29289;-71
2022/08/24 03:07:31;;;;;;;3.13;2.93;;;14.90;99.90;;;;;;482683;246;29422;-68
2022/08/24 03:09:32;;;;;;;2.87;2.67;;;14.90;99.90;;;;;;488997;243;29245;-69
2022/08/24 03:11:33;;;;;;;2.93;2.80;;;14.90;99.90;;;;;;482239;241;28859;-70
2022/08/24 03:13:35;;;;;;;2.77;2.60;;;14.90;99.90;;;;;;481323;247;28799;-68
2022/08/24 03:15:36;;;;;;;3.20;3.00;;;15.00;99.90;;;;;;481425;246;28753;-70
2022/08/24 03:17:37;;;;;;;2.90;2.70;;;15.10;99.90;;;;;;481361;246;28747;-69
2022/08/24 03:19:39;;;;;;;2.77;2.60;;;15.10;99.90;;;;;;481450;246;28708;-68
2022/08/24 03:21:40;;;;;;;3.00;2.80;;;15.10;99.90;;;;;;481423;246;28757;-69
2022/08/24 03:23:41;;;;;;;3.20;3.00;;;15.10;99.90;;;;;;481481;246;28752;-69
2022/08/24 03:25:43;;;;;;;3.30;3.00;;;15.00;99.90;;;;;;481454;246;28752;-69
2022/08/24 03:27:44;;;;;;;3.10;2.90;;;15.00;99.90;;;;;;481290;246;29165;-70
2022/08/24 03:29:45;;;;;;;2.90;2.70;;;15.00;99.90;;;;;;481437;246;29283;-68
2022/08/24 03:31:47;;;;;;;3.03;2.87;;;15.00;99.90;;;;;;482802;243;29210;-73
2022/08/24 03:33:47;;;;;;;2.80;2.60;;;14.90;99.90;;;;;;489475;243;29149;-69
2022/08/24 03:35:49;;;;;;;3.13;2.93;;;14.90;99.90;;;;;;486044;241;28834;-69
2022/08/24 03:37:50;;;;;;;3.33;3.13;;;14.80;99.90;;;;;;481239;246;28748;-69
2022/08/24 03:39:51;;;;;;;2.70;2.60;;;14.90;99.90;;;;;;480193;247;28714;-68
2022/08/24 03:41:52;;;;;;;3.03;2.83;;;14.90;99.90;;;;;;480153;247;28757;-69
2022/08/24 03:43:55;;;;;;;3.00;2.80;;;15.00;99.90;;;;;;480135;247;29289;-69
2022/08/24 03:45:55;;;;;;;2.80;2.70;;;15.00;99.90;;;;;;480091;247;29279;-68
2022/08/24 03:47:56;;;;;;;2.97;2.77;;;15.00;99.90;;;;;;480093;247;29330;-70
2022/08/24 03:49:57;;;;;;;2.90;2.70;;;15.00;99.90;;;;;;480157;247;29184;-69
2022/08/24 03:51:59;;;;;;;3.00;2.80;;;15.00;99.90;;;;;;480188;247;28815;-69
2022/08/24 03:54:00;;;;;;;3.20;3.00;;;15.00;99.90;;;;;;480154;247;28810;-68
2022/08/24 03:56:01;;;;;;;3.43;3.23;;;15.00;99.90;;;;;;480150;247;28724;-74
2022/08/24 03:58:02;;;;;;;3.33;3.07;;;14.90;99.90;;;;;;480117;247;28439;-71
2022/08/24 04:00:04;;;;;;;3.03;2.83;;;14.90;99.90;;;;;;480155;247;28781;-68
2022/08/24 04:02:05;;;;;;;3.50;3.20;;;14.90;99.90;;;;;;482204;243;28729;-68
2022/08/24 04:04:06;;;;;;;4.83;3.20;;;14.90;99.90;;;;;;489865;241;28877;-69
2022/08/24 04:06:07;;;;;;;3.03;2.80;;;14.90;99.90;;;;;;484762;241;28728;-68
2022/08/24 04:08:09;;;;;;;3.10;2.87;;;14.90;99.90;;;;;;486942;243;28757;-71
2022/08/24 04:10:12;;;;;;;3.30;3.00;;;14.90;99.90;;;;;;489927;241;29303;-68
2022/08/24 04:12:11;;;;;;;3.30;3.00;;;14.90;99.90;;;;;;489818;242;29410;-68
2022/08/24 04:14:12;;;;;;;3.40;3.20;;;14.90;99.90;;;;;;489911;241;29559;-68
2022/08/24 04:16:14;;;;;;;3.60;3.30;;;14.90;99.90;;;;;;489869;241;28819;-69
2022/08/24 04:18:15;;;;;;;2.90;2.70;;;14.90;99.90;;;;;;489963;241;28783;-70
2022/08/24 04:20:16;;;;;;;3.43;3.23;;;14.90;99.90;;;;;;489927;241;28814;-68
2022/08/24 04:22:17;;;;;;;3.57;3.37;;;14.90;99.90;;;;;;489900;241;28771;-68
2022/08/24 04:24:19;;;;;;;3.10;2.90;;;14.90;99.90;;;;;;489904;241;28744;-69
2022/08/24 04:26:20;;;;;;;3.70;3.40;;;14.90;99.90;;;;;;489908;243;28404;-69
2022/08/24 04:28:22;;;;;;;3.60;3.40;;;14.90;99.90;;;;;;489932;241;28961;-69
2022/08/24 04:30:23;;;;;;;3.37;3.17;;;14.90;99.90;;;;;;489876;242;28866;-69
2022/08/24 04:32:24;;;;;;;3.20;3.00;;;14.90;99.90;;;;;;487323;242;28933;-69
2022/08/24 04:34:25;;;;;;;3.13;2.93;;;14.80;99.90;;;;;;488991;242;29793;-69
2022/08/24 04:36:26;;;;;;;3.40;3.20;;;14.80;99.90;;;;;;472226;247;29371;-69
2022/08/24 04:38:28;;;;;;;3.40;3.20;;;14.80;99.90;;;;;;481529;246;29377;-69
2022/08/24 04:40:29;;;;;;;3.43;3.23;;;14.80;99.90;;;;;;482411;246;28757;-68
2022/08/24 04:42:30;;;;;;;3.33;3.13;;;14.80;99.90;;;;;;482451;246;28797;-69
2022/08/24 04:44:31;;;;;;;3.73;3.37;;;14.80;99.90;;;;;;482462;246;28764;-72
2022/08/24 04:46:32;;;;;;;3.57;3.37;;;14.80;99.90;;;;;;480065;246;28695;-69
2022/08/24 04:48:34;;;;;;;4.00;3.20;;;14.80;99.90;;;;;;481959;247;28892;-70
2022/08/24 04:50:35;;;;;;;3.23;2.87;;;14.80;99.90;;;;;;481895;247;28914;-68
2022/08/24 04:52:36;;;;;;;3.13;2.90;;;14.80;99.90;;;;;;481963;247;29344;-68
2022/08/24 04:54:37;;;;;;;3.60;3.40;;;14.90;99.90;;;;;;481466;247;29444;-71
2022/08/24 04:56:39;;;;;;;3.30;3.10;;;14.80;99.90;;;;;;481757;247;29373;-69
2022/08/24 04:58:40;;;;;;;3.37;3.00;;;14.80;99.90;;;;;;481909;247;28869;-70
2022/08/24 05:00:41;;;;;;;3.40;3.20;;;14.70;99.90;;;;;;481927;247;28927;-69
2022/08/24 05:02:43;;;;;;;3.33;3.13;;;14.80;99.90;;;;;;481470;247;28987;-69
2022/08/24 05:04:44;;;;;;;4.97;3.50;;;14.80;99.90;;;;;;481890;247;28852;-71
2022/08/24 05:06:45;;;;;;;3.37;3.17;;;14.90;99.90;;;;;;476879;247;28823;-71
2022/08/24 05:08:46;;;;;;;3.40;3.20;;;14.90;99.90;;;;;;476680;247;29446;-69
2022/08/24 05:10:50;;;;;;;3.20;3.00;;;15.00;99.90;;;;;;472146;250;29311;-69
2022/08/24 05:12:49;;;;;;;3.90;3.60;;;15.10;99.90;;;;;;473448;251;29362;-69
2022/08/24 05:14:50;;;;;;;3.77;3.50;;;15.10;99.90;;;;;;473643;251;28988;-70
2022/08/24 05:16:51;;;;;;;3.30;3.10;;;15.20;99.90;;;;;;475688;242;28896;-71
2022/08/24 05:18:53;;;;;;;3.37;3.17;;;15.20;99.90;;;;;;492322;241;29314;-71
2022/08/24 05:20:54;;;;;;;3.50;3.30;;;15.20;99.90;;;;;;483260;245;29076;-73
2022/08/24 05:22:55;;;;;;;3.83;3.53;;;15.30;99.90;;;;;;492351;241;28802;-68
2022/08/24 05:24:56;;;;;;;3.30;3.10;;;15.30;99.90;;;;;;483483;245;29243;-70
2022/08/24 05:26:59;;;;;;;3.83;3.57;;;15.30;99.90;;;;;;492372;241;29281;-68
2022/08/24 05:28:59;;;;;;;3.60;3.40;;;15.40;99.90;;;;;;483505;245;29258;-70
2022/08/24 05:31:00;;;;;;;3.70;3.50;;;15.40;99.90;;;;;;492396;241;28960;-72
2022/08/24 05:33:01;;;;;;;4.07;3.77;;;15.40;99.90;;;;;;483413;245;28949;-68
2022/08/24 05:35:03;;;;;;;3.50;3.20;;;15.40;99.90;;;;;;492346;241;28866;-70
2022/08/24 05:37:04;;;;;;;3.30;3.07;;;15.50;99.90;;;;;;483518;245;28778;-68
2022/08/24 05:39:05;;;;;;;3.00;2.80;;;15.50;99.90;;;;;;492415;241;28843;-69
2022/08/24 05:41:06;;;;;;;3.37;3.17;;;15.50;99.90;;;;;;484915;243;28728;-69
2022/08/24 05:43:08;;;;;;;3.70;3.30;;;15.60;99.90;;;;;;485982;243;28697;-69
2022/08/24 05:45:09;;;;;;;3.43;3.23;;;15.60;99.90;;;;;;477732;249;28793;-70
2022/08/24 05:47:10;;;;;;;3.77;3.20;;;15.70;99.90;;;;;;481228;246;28842;-68
2022/08/24 05:49:11;;;;;;;4.67;3.23;;;15.70;99.90;;;;;;482896;246;29341;-69
2022/08/24 05:51:13;;;;;;;3.30;3.00;;;15.80;99.90;;;;;;479481;246;29555;-71
2022/08/24 05:53:14;;;;;;;3.40;3.20;;;15.80;99.90;;;;;;477801;249;29327;-68
2022/08/24 05:55:15;;;;;;;3.20;3.00;;;15.80;99.90;;;;;;480842;247;29327;-69
2022/08/24 05:57:16;;;;;;;3.00;2.80;;;15.90;99.90;;;;;;470043;246;28803;-68
2022/08/24 05:59:18;;;;;;;3.27;3.07;;;15.90;99.90;;;;;;483832;245;28812;-69
2022/08/24 06:01:19;;;;;;;4.13;3.00;;;15.90;99.90;;;;;;481809;245;28847;-72
2022/08/24 06:03:20;;;;;;;3.00;2.80;;;16.00;99.90;;;;;;480435;246;28837;-69
2022/08/24 06:05:21;;;;;;;3.60;3.40;;;16.10;99.90;;;;;;480470;246;28976;-69
2022/08/24 06:07:23;;;;;;;3.30;3.10;;;16.20;99.90;;;;;;480684;246;28863;-69
2022/08/24 06:09:24;;;;;;;3.60;3.30;;;16.30;99.90;;;;;;480768;246;28837;-70
2022/08/24 06:11:25;;;;;;;3.30;3.10;;;16.30;99.90;;;;;;482911;245;28857;-69
2022/08/24 06:13:26;;;;;;;3.00;2.80;;;16.40;99.90;;;;;;487547;243;29309;-69
2022/08/24 06:15:28;;;;;;;3.00;2.80;;;16.50;99.90;;;;;;485619;243;29349;-69
2022/08/24 06:19:39;;;;;;;2.63;2.53;;;16.60;99.90;;;;;;487121;241;29292;-68
2022/08/24 06:21:40;;;;;;;2.53;2.40;;;16.70;99.90;;;;;;489898;242;29423;-70
2022/08/24 06:23:42;;;;;;;3.10;2.90;;;16.80;99.90;;;;;;490053;242;28864;-71
2022/08/24 06:28:02;;;;;;;3.40;3.10;;;16.90;99.90;;;;;;486059;242;28888;-69
2022/08/24 06:30:03;;;;;;;2.90;2.70;;;16.90;99.90;;;;;;482956;244;28876;-69
2022/08/24 06:32:05;;;;;;;3.47;3.27;;;17.00;99.90;;;;;;483622;244;28824;-69
2022/08/24 06:34:07;;;;;;;3.63;3.33;;;17.00;99.90;;;;;;483448;246;28879;-69
2022/08/24 06:36:08;;;;;;;3.10;2.90;;;17.10;99.90;;;;;;483357;246;28874;-71
2022/08/24 06:38:09;;;;;;;3.07;2.87;;;17.20;99.90;;;;;;483445;246;29280;-70
2022/08/24 06:40:19;;;;;;;3.37;3.13;;;17.20;99.90;;;;;;483296;246;29296;-69
2022/08/24 06:42:18;;;;;;;2.90;2.80;;;17.30;99.90;;;;;;483172;246;28941;-70
2022/08/24 06:44:19;;;;;;;2.87;2.70;;;17.40;99.90;;;;;;483299;246;28853;-70
2022/08/24 06:46:20;;;;;;;3.20;3.00;;;17.40;99.90;;;;;;483380;246;29315;-70
2022/08/24 06:48:22;;;;;;;3.10;2.90;;;17.50;99.90;;;;;;483362;246;29541;-70
2022/08/24 06:50:23;;;;;;;2.70;2.50;;;17.60;99.90;;;;;;483390;246;29388;-69
2022/08/24 06:52:24;;;;;;;2.97;2.77;;;17.60;99.90;;;;;;483334;246;28951;-70
2022/08/24 06:54:25;;;;;;;2.80;2.60;;;17.70;99.90;;;;;;483363;246;28959;-70
2022/08/24 06:56:27;;;;;;;2.80;2.60;;;17.80;99.90;;;;;;483410;246;28868;-69
2022/08/24 06:58:28;;;;;;;3.27;2.77;;;17.90;99.90;;;;;;486091;241;28865;-69
2022/08/24 07:00:29;;;;;;;2.97;2.77;;;18.00;99.90;;;;;;490028;242;28882;-70
2022/08/24 07:02:30;;;;;;;2.80;2.60;;;18.00;99.90;;;;;;489951;243;28837;-69
2022/08/24 07:04:32;;;;;;;3.00;2.80;;;18.10;99.90;;;;;;490070;242;28922;-69
2022/08/24 07:06:33;;;;;;;3.30;3.10;;;18.20;99.90;;;;;;490007;242;28775;-70
2022/08/24 07:08:34;;;;;;;2.80;2.60;;;18.30;99.90;;;;;;490106;242;28835;-70
2022/08/24 07:10:35;;;;;;;2.70;2.50;;;18.40;99.90;;;;;;490086;242;29306;-69
2022/08/24 07:12:37;;;;;;;2.97;2.77;;;18.50;99.90;;;;;;489982;242;29347;-71
2022/08/24 07:14:38;;;;;;;3.17;2.97;;;18.60;99.90;;;;;;490036;242;29249;-70
2022/08/24 07:16:39;;;;;;;3.30;3.10;;;18.60;99.90;;;;;;489985;242;29333;-70
2022/08/24 07:18:40;;;;;;;3.17;2.97;;;18.70;99.90;;;;;;489793;242;28858;-70
2022/08/24 07:20:42;;;;;;;3.40;3.20;;;18.80;99.90;;;;;;488447;242;28698;-70
2022/08/24 07:22:43;;;;;;;3.30;3.10;;;18.90;99.90;;;;;;488563;242;28760;-73
2022/08/24 07:24:45;;;;;;;3.47;3.27;;;19.10;99.90;;;;;;488556;242;28704;-70
2022/08/24 07:26:45;;;;;;;3.10;2.90;;;19.20;99.90;;;;;;488501;242;28752;-70
2022/08/24 07:28:47;;;;;;;3.00;2.80;;;19.20;99.90;;;;;;488590;242;29225;-75
2022/08/24 07:30:48;;;;;;;2.97;2.77;;;19.20;99.90;;;;;;488601;242;28713;-70
2022/08/24 07:32:49;;;;;;;2.70;2.60;;;19.30;99.90;;;;;;488495;242;28821;-71
2022/08/24 07:34:50;;;;;;;2.70;2.60;;;19.40;99.90;;;;;;488619;242;29233;-70
2022/08/24 07:36:53;;;;;;;2.90;2.80;;;19.50;99.90;;;;;;488543;242;29292;-71
2022/08/24 07:38:53;;;;;;;2.83;2.63;;;19.60;99.90;;;;;;488321;243;29320;-75
2022/08/24 07:40:54;;;;;;;2.70;2.50;;;19.70;99.90;;;;;;488554;242;29248;-70
2022/08/24 07:42:56;;;;;;;3.20;2.90;;;19.90;99.90;;;;;;488617;242;28754;-72
2022/08/24 07:44:57;;;;;;;4.03;2.73;;;20.00;99.90;;;;;;488560;242;28824;-71
2022/08/24 07:46:58;;;;;;;2.93;2.73;;;20.00;99.90;;;;;;488565;242;28746;-70
2022/08/24 07:48:59;;;;;;;2.80;2.63;;;20.10;99.90;;;;;;488629;242;28821;-74
2022/08/24 07:51:00;;;;;;;3.07;2.80;;;20.20;99.90;;;;;;488618;242;28698;-70
2022/08/24 07:53:02;;;;;;;3.23;3.03;;;20.20;99.90;;;;;;488664;242;28806;-71
2022/08/24 07:55:03;;;;;;;3.00;2.80;;;20.30;99.90;;;;;;488605;242;28727;-72
2022/08/24 07:57:05;;;;;;;3.30;3.10;;;20.50;99.90;;;;;;488577;242;28830;-71
2022/08/24 07:59:05;;;;;;;3.03;2.83;;;20.70;99.90;;;;;;488596;242;28740;-73
2022/08/24 08:01:08;;;;;;;2.73;2.63;;;20.80;99.90;;;;;;488624;242;29305;-71
2022/08/24 08:03:08;;;;;;;3.00;2.80;;;20.90;99.90;;;;;;488549;243;29333;-73
2022/08/24 08:05:09;;;;;;;3.30;3.00;;;21.00;99.90;;;;;;488630;242;29176;-70
2022/08/24 08:07:11;;;;;;;2.93;2.70;;;21.10;99.90;;;;;;488520;242;28751;-70
2022/08/24 08:09:12;;;;;;;3.13;2.93;;;21.10;99.90;;;;;;488586;242;28758;-74
2022/08/24 08:11:13;;;;;;;2.67;2.47;;;21.20;99.90;;;;;;488622;242;28711;-70
2022/08/24 08:13:14;;;;;;;2.87;2.57;;;21.20;99.90;;;;;;488463;242;28821;-71
2022/08/24 08:15:15;;;;;;;2.80;2.70;;;21.30;99.90;;;;;;488608;242;28752;-70
2022/08/24 08:17:17;;;;;;;2.63;2.43;;;21.40;99.90;;;;;;488462;242;28757;-70
2022/08/24 08:19:18;;;;;;;2.37;2.27;;;21.50;99.90;;;;;;488587;242;29084;-74
2022/08/24 08:26:00;;;;;;;2.87;2.50;;;22.10;99.90;;;;;;488616;243;28751;-71
2022/08/24 08:27:59;;;;;;;2.57;2.47;;;22.20;99.90;;;;;;488422;243;28742;-70
2022/08/24 08:30:01;;;;;;;2.70;2.50;;;22.50;99.90;;;;;;488552;242;28818;-71
2022/08/24 08:32:02;;;;;;;3.17;2.90;;;22.60;99.90;;;;;;488514;243;29085;-70
2022/08/24 08:34:03;;;;;;;2.87;2.67;;;22.70;99.90;;;;;;488634;242;28710;-70
2022/08/24 08:36:05;;;;;;;2.33;2.10;;;22.70;99.90;;;;;;488542;242;29336;-70
2022/08/24 08:38:06;;;;;;;2.40;2.30;;;22.80;99.90;;;;;;488426;242;29182;-71
2022/08/24 08:40:08;;;;;;;2.67;2.47;;;22.80;99.90;;;;;;488461;242;29240;-70
2022/08/24 08:42:13;;;;;;;3.47;2.87;;;23.00;99.90;;;;;;488471;242;28747;-75
2022/08/24 08:44:10;;;;;;;2.93;2.60;;;23.80;99.90;;;;;;488258;243;28703;-71
2022/08/24 08:46:11;;;;;;;2.60;2.40;;;23.90;99.90;;;;;;488426;242;28738;-71
2022/08/24 08:48:12;;;;;;;2.57;2.47;;;23.80;99.90;;;;;;488592;242;28717;-70
2022/08/24 08:50:13;;;;;;;2.80;2.57;;;23.70;99.90;;;;;;488619;242;28837;-70
2022/08/24 08:52:15;;;;;;;3.30;2.90;;;24.20;99.90;;;;;;488595;242;29107;-74
2022/08/24 08:54:17;;;;;;;2.70;2.50;;;24.50;99.90;;;;;;488613;242;28770;-70
2022/08/24 08:56:17;;;;;;;3.23;2.50;;;24.80;99.90;;;;;;488421;242;28750;-71
2022/08/24 08:58:18;;;;;;;3.00;2.80;;;24.70;99.90;;;;;;488317;242;29269;-70
2022/08/24 09:00:21;;;;;;;3.70;2.80;;;24.90;99.90;;;;;;488624;242;29299;-70
2022/08/24 09:02:21;;;;;;;3.07;2.80;;;25.30;99.50;;;;;;488520;242;29345;-73
2022/08/24 09:04:23;;;;;;;5.27;2.97;;;25.20;99.80;;;;;;488588;242;29196;-70
2022/08/24 09:06:23;;;;;;;3.70;2.80;;;25.20;99.30;;;;;;488333;242;28819;-70
2022/08/24 09:08:25;;;;;;;4.27;3.03;;;25.10;99.50;;;;;;488052;242;28731;-70
2022/08/24 09:10:26;;;;;;;3.20;2.87;;;25.20;98.90;;;;;;488605;242;28738;-71
2022/08/24 09:12:27;;;;;;;2.70;2.50;;;25.50;99.20;;;;;;488521;242;28837;-72
2022/08/24 09:14:28;;;;;;;2.80;2.60;;;25.40;98.90;;;;;;488613;242;28714;-69
2022/08/24 09:16:30;;;;;;;4.43;2.30;;;25.20;98.30;;;;;;488352;242;28817;-70
2022/08/24 09:18:31;;;;;;;2.43;2.23;;;24.90;99.00;;;;;;488190;242;28786;-70
2022/08/24 09:20:32;;;;;;;2.60;2.50;;;24.90;99.90;;;;;;488594;242;28735;-70
2022/08/24 09:22:33;;;;;;;4.03;2.70;;;24.90;99.90;;;;;;488579;242;29324;-73
2022/08/24 09:24:35;;;;;;;3.43;2.73;;;25.20;98.60;;;;;;488585;242;29164;-69
2022/08/24 09:26:37;;;;;;;2.90;2.70;;;25.50;98.10;;;;;;488456;242;29297;-70
2022/08/24 09:28:37;;;;;;;3.70;2.93;;;25.60;98.30;;;;;;488580;242;29207;-70
2022/08/24 09:30:38;;;;;;;2.90;2.70;;;25.30;98.50;;;;;;488563;242;28784;-69
2022/08/24 09:32:40;;;;;;;2.93;2.73;;;25.00;98.40;;;;;;488634;242;28822;-74
2022/08/24 09:34:41;;;;;;;7.60;2.53;;;25.30;98.40;;;;;;488590;242;28725;-70
2022/08/24 09:36:42;;;;;;;3.13;2.83;;;25.50;97.40;;;;;;488428;242;28830;-70
2022/08/24 09:38:43;;;;;;;2.50;2.30;;;25.30;98.00;;;;;;483163;242;28976;-72
2022/08/24 09:40:45;;;;;;;3.17;2.70;;;25.40;98.00;;;;;;484463;244;28860;-70
2022/08/24 09:42:46;;;;;;;3.03;2.83;;;25.10;98.80;;;;;;484377;241;29281;-71
2022/08/24 09:44:47;;;;;;;2.50;2.30;;;25.40;97.50;;;;;;485444;244;29356;-70
2022/08/24 09:46:48;;;;;;;2.60;2.40;;;25.40;97.90;;;;;;484108;235;28821;-71
2022/08/24 09:48:50;;;;;;;2.70;2.50;;;25.30;98.30;;;;;;486753;238;28859;-70
2022/08/24 09:50:51;;;;;;;3.90;2.43;;;25.30;98.20;;;;;;486185;240;28730;-70
2022/08/24 09:52:52;;;;;;;2.53;2.33;;;25.30;98.10;;;;;;487844;242;28915;-73
2022/08/24 09:54:53;;;;;;;2.93;2.63;;;25.30;97.20;;;;;;480098;245;28855;-69
2022/08/24 09:56:55;;;;;;;5.73;2.73;;;25.60;96.10;;;;;;480066;241;28812;-70
2022/08/24 09:58:56;;;;;;;4.30;2.30;;;25.60;95.80;;;;;;486286;243;28770;-70
2022/08/24 10:00:58;;;;;;;3.30;2.97;;;26.00;95.30;;;;;;477352;245;28868;-70
2022/08/24 10:02:58;;;;;;;2.83;2.50;;;26.40;93.80;;;;;;489365;239;29360;-71
2022/08/24 10:05:00;;;;;;;2.77;2.57;;;26.10;94.40;;;;;;476662;249;29308;-70
2022/08/24 10:07:01;;;;;;;3.27;2.97;;;26.20;94.80;;;;;;476665;249;29281;-70
2022/08/24 10:09:03;;;;;;;4.87;2.90;;;26.30;94.80;;;;;;476626;249;29145;-69
2022/08/24 10:11:04;;;;;;;4.67;2.97;;;26.30;94.90;;;;;;476741;245;28858;-70
2022/08/24 10:13:05;;;;;;;2.70;2.50;;;26.30;94.60;;;;;;488105;242;28767;-71
2022/08/24 10:15:06;;;;;;;10.97;2.80;;;26.10;95.00;;;;;;488428;242;28814;-70
2022/08/24 10:17:07;;;;;;;2.70;2.50;;;26.40;94.90;;;;;;491749;242;28730;-73
2022/08/24 10:19:09;;;;;;;3.00;2.50;;;26.30;95.10;;;;;;491825;242;28718;-71
2022/08/24 10:21:10;;;;;;;3.70;2.47;;;26.20;94.40;;;;;;475141;250;29295;-70
2022/08/24 10:23:11;;;;;;;8.77;3.00;;;26.10;94.60;;;;;;491793;241;29227;-70
2022/08/24 10:25:14;;;;;;;5.37;2.77;;;26.10;94.60;;;;;;471992;251;29451;-70
2022/08/24 10:27:14;;;;;;;5.93;2.90;;;25.90;95.00;;;;;;473021;251;29393;-71
2022/08/24 10:29:15;;;;;;;3.10;2.30;;;26.30;94.20;;;;;;491693;242;28822;-73
2022/08/24 10:31:16;;;;;;;3.20;2.83;;;26.20;94.10;;;;;;472030;251;28868;-70
2022/08/24 10:33:18;;;;;;;2.73;2.30;;;26.30;94.10;;;;;;473386;251;28861;-71
2022/08/24 10:35:19;;;;;;;4.67;2.70;;;26.20;94.70;;;;;;491841;242;28786;-70
2022/08/24 10:37:20;;;;;;;2.60;2.40;;;26.60;94.90;;;;;;480455;237;28747;-70
2022/08/24 10:41:41;;;;;;;5.73;2.30;;;26.60;94.30;;;;;;484706;245;29282;-70
2022/08/24 10:43:42;;;;;;;2.30;2.20;;;26.40;93.00;;;;;;484737;244;29220;-70
2022/08/24 10:45:43;;;;;;;2.40;2.20;;;26.20;93.80;;;;;;484745;244;29327;-73